createdAt,value
2022-10-16T00:01:31.001Z,2.30
2022-10-16T00:03:59.898Z,2.20
2022-10-16T00:06:28.614Z,1.87
2022-10-16T00:08:55.750Z,1.93
2022-10-16T00:11:28.753Z,2.03
2022-10-16T00:13:58.998Z,1.90
2022-10-16T00:16:28.011Z,1.60
2022-10-16T00:18:55.365Z,1.60
2022-10-16T00:21:24.591Z,2.10
2022-10-16T00:23:57.105Z,1.90
2022-10-16T00:26:24.118Z,1.50
2022-10-16T00:28:51.986Z,1.13
2022-10-16T00:31:20.901Z,1.83
2022-10-16T00:33:47.753Z,1.60
2022-10-16T00:36:20.926Z,1.80
2022-10-16T00:38:47.821Z,1.70
2022-10-16T00:41:17.655Z,1.60
2022-10-16T00:43:47.711Z,1.60
2022-10-16T00:46:34.822Z,1.17
2022-10-16T00:49:04.773Z,1.30
2022-10-16T00:51:37.138Z,2.47
2022-10-16T00:54:07.817Z,1.47
2022-10-16T00:56:34.950Z,1.50
2022-10-16T00:59:08.166Z,1.33
2022-10-16T01:01:35.014Z,1.50
2022-10-16T01:04:01.749Z,1.70
2022-10-16T01:06:42.670Z,1.63
2022-10-16T01:09:21.369Z,1.30
2022-10-16T01:12:07.049Z,1.80
2022-10-16T01:15:01.446Z,1.70
2022-10-16T01:17:46.926Z,1.50
2022-10-16T01:20:39.157Z,1.37
2022-10-16T01:23:17.367Z,1.40
2022-10-16T01:26:08.711Z,1.60
2022-10-16T01:29:03.074Z,1.80
2022-10-16T01:31:33.764Z,1.60
2022-10-16T01:34:06.925Z,2.20
2022-10-16T01:36:40.944Z,2.00
2022-10-16T01:39:11.782Z,1.70
2022-10-16T01:41:44.951Z,1.93
2022-10-16T01:44:18.709Z,2.20
2022-10-16T01:46:49.570Z,2.03
2022-10-16T01:49:19.645Z,2.00
2022-10-16T01:51:52.059Z,1.93
2022-10-16T01:54:21.682Z,1.63
2022-10-16T01:56:51.548Z,1.70
2022-10-16T01:59:22.313Z,1.73
2022-10-16T02:01:53.918Z,1.40
2022-10-16T02:04:27.885Z,1.77
2022-10-16T02:06:54.950Z,1.50
2022-10-16T02:09:22.094Z,1.57
2022-10-16T02:11:50.364Z,1.50
2022-10-16T02:14:17.460Z,1.60
2022-10-16T02:16:47.464Z,1.63
2022-10-16T02:19:17.547Z,1.90
2022-10-16T02:21:56.005Z,1.80
2022-10-16T02:24:38.359Z,2.10
2022-10-16T02:27:12.303Z,1.60
2022-10-16T02:29:51.100Z,1.47
2022-10-16T02:32:22.388Z,1.57
2022-10-16T02:34:51.010Z,1.80
2022-10-16T02:37:19.345Z,1.60
2022-10-16T02:39:47.277Z,1.60
2022-10-16T02:42:16.121Z,1.30
2022-10-16T02:44:42.915Z,1.53
2022-10-16T02:47:09.659Z,1.90
2022-10-16T02:49:36.415Z,1.90
2022-10-16T02:52:03.368Z,1.87
2022-10-16T02:54:30.149Z,1.80
2022-10-16T02:56:57.209Z,2.23
2022-10-16T02:59:23.857Z,1.80
2022-10-16T03:01:50.724Z,1.67
2022-10-16T03:04:18.001Z,2.43
2022-10-16T03:06:44.668Z,2.20
2022-10-16T03:09:11.722Z,2.47
2022-10-16T03:11:38.475Z,2.43
2022-10-16T03:14:05.475Z,3.17
2022-10-16T03:16:32.972Z,2.97
2022-10-16T03:18:59.686Z,2.93
2022-10-16T03:21:26.562Z,2.50
2022-10-16T03:23:53.274Z,2.33
2022-10-16T03:26:20.061Z,2.70
2022-10-16T03:28:48.036Z,2.60
2022-10-16T03:31:14.799Z,2.90
2022-10-16T03:33:42.162Z,2.83
2022-10-16T03:36:09.053Z,2.50
2022-10-16T03:38:35.753Z,3.20
2022-10-16T03:41:03.014Z,2.90
2022-10-16T03:43:29.751Z,3.20
2022-10-16T03:45:56.499Z,2.67
2022-10-16T03:48:23.194Z,2.10
2022-10-16T03:50:49.919Z,2.60
2022-10-16T03:53:17.935Z,2.03
2022-10-16T03:55:46.015Z,2.20
2022-10-16T03:58:13.361Z,1.90
2022-10-16T04:00:45.106Z,1.93
2022-10-16T04:03:12.876Z,2.03
2022-10-16T04:05:40.198Z,2.10
2022-10-16T04:08:07.306Z,1.93
2022-10-16T04:10:34.146Z,1.90
2022-10-16T04:13:01.388Z,2.80
2022-10-16T04:15:28.970Z,1.90
2022-10-16T04:17:55.657Z,2.40
2022-10-16T04:20:22.379Z,1.83
2022-10-16T04:22:49.093Z,1.97
2022-10-16T04:25:16.442Z,1.67
2022-10-16T04:27:46.058Z,1.73
2022-10-16T04:30:13.273Z,1.90
2022-10-16T04:32:40.130Z,1.83
2022-10-16T04:35:07.227Z,1.93
2022-10-16T04:37:34.046Z,1.93
2022-10-16T04:40:00.823Z,2.63
2022-10-16T04:42:28.727Z,2.13
2022-10-16T04:44:55.455Z,1.70
2022-10-16T04:47:22.113Z,1.67
2022-10-16T04:49:48.965Z,2.33
2022-10-16T04:52:17.522Z,2.00
2022-10-16T04:54:47.179Z,1.60
2022-10-16T04:57:13.990Z,1.70
2022-10-16T04:59:40.674Z,1.80
2022-10-16T05:02:07.334Z,1.97
2022-10-16T05:04:34.049Z,1.97
2022-10-16T05:07:00.764Z,1.70
2022-10-16T05:09:28.991Z,1.70
2022-10-16T05:11:55.681Z,1.90
2022-10-16T05:14:22.405Z,1.80
2022-10-16T05:16:49.381Z,1.50
2022-10-16T05:19:32.887Z,1.80
2022-10-16T05:22:00.137Z,1.83
2022-10-16T05:24:26.970Z,1.70
2022-10-16T05:26:53.821Z,1.70
2022-10-16T05:29:20.817Z,2.00
2022-10-16T05:31:50.688Z,2.17
2022-10-16T05:34:19.225Z,1.93
2022-10-16T05:36:49.479Z,1.63
2022-10-16T05:39:18.079Z,2.10
2022-10-16T05:41:45.529Z,2.37
2022-10-16T05:44:12.643Z,2.23
2022-10-16T05:46:39.362Z,2.03
2022-10-16T05:49:06.087Z,1.90
2022-10-16T05:51:34.034Z,1.93
2022-10-16T05:54:00.765Z,2.10
2022-10-16T05:56:27.802Z,2.13
2022-10-16T05:58:54.490Z,1.97
2022-10-16T06:01:25.011Z,2.00
2022-10-16T06:03:53.042Z,1.97
2022-10-16T06:06:22.638Z,1.80
2022-10-16T06:08:50.759Z,2.17
2022-10-16T06:11:20.395Z,1.97
2022-10-16T06:13:51.451Z,2.20
2022-10-16T06:16:19.742Z,2.00
2022-10-16T06:18:47.510Z,2.00
2022-10-16T06:21:22.961Z,1.90
2022-10-16T06:23:49.842Z,1.97
2022-10-16T06:26:19.609Z,2.03
2022-10-16T06:28:47.541Z,2.30
2022-10-16T06:31:15.291Z,2.33
2022-10-16T06:33:42.516Z,2.20
2022-10-16T06:36:17.581Z,2.20
2022-10-16T06:38:45.563Z,2.13
2022-10-16T06:41:23.319Z,2.00
2022-10-16T06:43:50.660Z,1.73
2022-10-16T06:46:21.251Z,2.00
2022-10-16T06:48:49.767Z,2.78
2022-10-16T06:51:19.883Z,2.28
2022-10-16T06:54:07.918Z,1.88
2022-10-16T06:56:35.251Z,1.50
2022-10-16T06:59:03.725Z,1.83
2022-10-16T07:01:31.375Z,2.42
2022-10-16T07:03:58.482Z,1.67
2022-10-16T07:06:27.100Z,1.60
2022-10-16T07:08:54.022Z,1.70
2022-10-16T07:11:24.676Z,1.80
2022-10-16T07:13:54.989Z,1.85
2022-10-16T07:16:28.911Z,2.08
2022-10-16T07:19:00.736Z,1.90
2022-10-16T07:21:37.254Z,1.70
2022-10-16T07:24:13.794Z,1.60
2022-10-16T07:26:42.121Z,1.95
2022-10-16T07:29:15.194Z,2.10
2022-10-16T07:31:42.921Z,1.52
2022-10-16T07:34:10.919Z,2.15
2022-10-16T07:36:37.746Z,1.42
2022-10-16T07:39:05.844Z,1.35
2022-10-16T07:41:35.226Z,1.60
2022-10-16T07:44:01.986Z,1.23
2022-10-16T07:46:29.634Z,1.30
2022-10-16T07:48:56.766Z,1.40
2022-10-16T07:51:25.748Z,1.58
2022-10-16T07:53:53.976Z,1.35
2022-10-16T07:56:22.293Z,1.50
2022-10-16T07:58:51.912Z,1.70
2022-10-16T08:01:21.340Z,1.75
2022-10-16T08:03:52.177Z,1.60
2022-10-16T08:06:23.574Z,1.27
2022-10-16T08:08:56.945Z,1.17
2022-10-16T08:11:24.680Z,1.55
2022-10-16T08:13:51.468Z,1.40
2022-10-16T08:16:19.951Z,1.88
2022-10-16T08:18:47.327Z,1.90
2022-10-16T08:21:21.738Z,1.70
2022-10-16T08:23:55.044Z,1.42
2022-10-16T08:26:25.454Z,1.50
2022-10-16T08:28:53.009Z,1.70
2022-10-16T08:31:21.774Z,1.30
2022-10-16T08:33:49.785Z,1.55
2022-10-16T08:36:17.737Z,1.60
2022-10-16T08:38:44.731Z,1.45
2022-10-16T08:41:31.868Z,2.85
2022-10-16T08:44:23.947Z,1.38
2022-10-16T08:46:57.470Z,1.70
2022-10-16T08:49:25.698Z,9.85
2022-10-16T08:51:52.942Z,1.70
2022-10-16T08:54:58.370Z,9.40
2022-10-16T08:57:27.871Z,12.65
2022-10-16T08:59:56.318Z,5.05
2022-10-16T09:02:30.797Z,3.20
2022-10-16T09:05:17.718Z,4.00
2022-10-16T09:07:55.912Z,1.80
2022-10-16T09:10:54.438Z,1.52
2022-10-16T09:13:39.481Z,1.83
2022-10-16T09:16:20.460Z,1.83
2022-10-16T09:18:58.147Z,1.38
2022-10-16T09:21:27.434Z,1.40
2022-10-16T09:23:55.414Z,1.45
2022-10-16T09:28:53.650Z,1.25
2022-10-16T09:31:23.074Z,1.23
2022-10-16T09:33:55.195Z,1.48
2022-10-16T09:36:24.887Z,1.42
2022-10-16T09:39:03.443Z,1.55
2022-10-16T09:41:36.890Z,1.30
2022-10-16T09:44:06.963Z,1.25
2022-10-16T09:46:34.484Z,1.23
2022-10-16T09:49:06.746Z,1.10
2022-10-16T09:51:37.135Z,1.00
2022-10-16T09:54:15.923Z,1.20
2022-10-16T09:56:43.358Z,1.25
2022-10-16T09:59:14.362Z,1.38
2022-10-16T10:01:42.582Z,1.30
2022-10-16T10:04:09.917Z,1.30
2022-10-16T10:06:49.858Z,1.20
2022-10-16T10:09:39.531Z,1.05
2022-10-16T10:12:26.003Z,1.08
2022-10-16T10:14:57.081Z,0.90
2022-10-16T10:17:26.090Z,1.10
2022-10-16T10:20:05.201Z,1.50
2022-10-16T10:22:32.645Z,1.15
2022-10-16T10:25:14.462Z,1.10
2022-10-16T10:27:44.157Z,1.10
2022-10-16T10:30:22.418Z,1.25
2022-10-16T10:32:58.038Z,1.13
2022-10-16T10:36:12.743Z,0.95
2022-10-16T10:38:48.746Z,1.10
2022-10-16T10:41:15.459Z,1.25
2022-10-16T10:43:51.490Z,0.90
2022-10-16T10:46:42.041Z,1.20
2022-10-16T10:49:52.780Z,0.90
2022-10-16T10:52:47.245Z,0.93
2022-10-16T10:55:16.721Z,0.77
2022-10-16T10:57:52.809Z,1.10
2022-10-16T11:00:31.929Z,0.73
2022-10-16T11:03:31.837Z,0.73
2022-10-16T11:06:12.153Z,0.80
2022-10-16T11:08:51.741Z,0.80
2022-10-16T11:11:26.731Z,0.68
2022-10-16T11:14:12.867Z,0.65
2022-10-16T11:16:55.382Z,0.85
2022-10-16T11:19:40.715Z,0.70
2022-10-16T11:22:20.749Z,0.63
2022-10-16T11:25:09.733Z,0.70
2022-10-16T11:28:01.199Z,0.50
2022-10-16T11:30:31.759Z,0.60
2022-10-16T11:33:13.238Z,0.30
2022-10-16T11:35:44.189Z,0.30
2022-10-16T11:38:22.268Z,0.38
2022-10-16T11:40:53.354Z,0.40
2022-10-16T11:43:33.669Z,0.38
2022-10-16T11:46:09.236Z,0.40
2022-10-16T11:48:51.044Z,0.35
2022-10-16T11:51:34.567Z,0.30
2022-10-16T11:54:29.976Z,0.40
2022-10-16T11:57:07.302Z,0.57
2022-10-16T11:59:42.159Z,0.40
2022-10-16T12:02:46.098Z,0.47
2022-10-16T12:05:19.077Z,0.38
2022-10-16T12:08:11.987Z,0.30
2022-10-16T12:10:42.151Z,0.30
2022-10-16T12:13:31.949Z,0.20
2022-10-16T12:16:29.033Z,0.30
2022-10-16T12:19:17.759Z,0.40
2022-10-16T12:21:46.279Z,0.30
2022-10-16T12:24:37.567Z,0.47
2022-10-16T12:27:09.119Z,0.32
2022-10-16T12:29:41.222Z,0.52
2022-10-16T12:32:45.814Z,0.30
2022-10-16T12:35:23.780Z,0.43
2022-10-16T12:37:52.326Z,0.40
2022-10-16T12:40:29.493Z,0.43
2022-10-16T12:42:56.377Z,0.40
2022-10-16T12:45:32.757Z,0.50
2022-10-16T12:48:02.111Z,0.50
2022-10-16T12:50:35.028Z,0.30
2022-10-16T12:53:04.342Z,0.40
2022-10-16T12:55:43.090Z,0.20
2022-10-16T12:58:23.916Z,0.30
2022-10-16T13:00:59.351Z,0.40
2022-10-16T13:03:59.031Z,0.50
2022-10-16T13:06:37.971Z,0.60
2022-10-16T13:09:16.976Z,0.43
2022-10-16T13:12:09.913Z,0.32
2022-10-16T13:14:50.096Z,0.20
2022-10-16T13:17:54.350Z,0.50
2022-10-16T13:20:43.185Z,1.23
2022-10-16T13:23:18.526Z,0.60
2022-10-16T13:25:47.930Z,0.60
2022-10-16T13:28:14.931Z,0.60
2022-10-16T13:30:53.219Z,0.50
2022-10-16T13:33:39.566Z,0.50
2022-10-16T13:36:08.284Z,0.60
2022-10-16T13:38:37.528Z,0.60
2022-10-16T13:41:23.289Z,0.43
2022-10-16T13:43:53.605Z,0.38
2022-10-16T13:46:25.517Z,0.70
2022-10-16T13:49:04.483Z,0.70
2022-10-16T13:51:32.386Z,0.50
2022-10-16T13:54:00.207Z,0.50
2022-10-16T13:56:30.412Z,0.40
2022-10-16T13:59:24.964Z,0.45
2022-10-16T14:01:55.593Z,0.60
2022-10-16T14:04:23.557Z,0.65
2022-10-16T14:06:53.341Z,0.40
2022-10-16T14:09:23.730Z,0.73
2022-10-16T14:11:54.630Z,0.65
2022-10-16T14:14:21.690Z,0.65
2022-10-16T14:16:49.437Z,0.40
2022-10-16T14:19:21.412Z,0.80
2022-10-16T14:21:48.330Z,0.60
2022-10-16T14:24:41.594Z,0.55
2022-10-16T14:27:30.266Z,0.80
2022-10-16T14:30:19.873Z,0.80
2022-10-16T14:33:00.973Z,0.63
2022-10-16T14:35:27.677Z,0.60
2022-10-16T14:37:57.636Z,0.60
2022-10-16T14:40:27.198Z,0.70
2022-10-16T14:42:55.794Z,1.15
2022-10-16T14:45:31.853Z,0.60
2022-10-16T14:48:01.690Z,0.40
2022-10-16T14:50:28.638Z,0.90
2022-10-16T14:52:56.047Z,1.00
2022-10-16T14:57:59.592Z,0.90
2022-10-16T15:00:28.118Z,1.00
2022-10-16T15:02:55.539Z,1.55
2022-10-16T15:05:24.237Z,1.15
2022-10-16T15:07:54.238Z,1.13
2022-10-16T15:10:24.416Z,1.02
2022-10-16T15:12:51.805Z,1.30
2022-10-16T15:15:26.607Z,0.90
2022-10-16T15:17:57.571Z,1.52
2022-10-16T15:20:26.244Z,1.42
2022-10-16T15:22:54.485Z,1.77
2022-10-16T15:25:33.488Z,0.88
2022-10-16T15:28:01.603Z,2.60
2022-10-16T15:30:28.750Z,1.20
2022-10-16T15:32:56.053Z,1.00
2022-10-16T15:35:23.330Z,1.35
2022-10-16T15:37:50.668Z,1.13
2022-10-16T15:40:19.209Z,1.25
2022-10-16T15:42:46.240Z,0.82
2022-10-16T15:45:13.916Z,1.00
2022-10-16T15:47:45.880Z,1.23
2022-10-16T15:50:17.029Z,1.10
2022-10-16T15:52:43.789Z,1.17
2022-10-16T15:55:13.167Z,1.60
2022-10-16T15:57:42.462Z,1.63
2022-10-16T16:00:13.117Z,1.13
2022-10-16T16:02:41.383Z,1.33
2022-10-16T16:05:09.901Z,1.50
2022-10-16T16:07:37.746Z,2.00
2022-10-16T16:10:08.771Z,1.45
2022-10-16T16:12:37.650Z,1.60
2022-10-16T16:15:11.205Z,1.15
2022-10-16T16:17:38.789Z,1.38
2022-10-16T16:20:06.519Z,1.40
2022-10-16T16:22:33.240Z,1.50
2022-10-16T16:24:59.953Z,2.05
2022-10-16T16:27:27.231Z,1.52
2022-10-16T16:29:56.191Z,1.48
2022-10-16T16:32:23.828Z,1.98
2022-10-16T16:34:50.525Z,1.60
2022-10-16T16:37:17.284Z,1.58
2022-10-16T16:39:44.246Z,1.50
2022-10-16T16:42:11.536Z,1.70
2022-10-16T16:44:39.123Z,1.48
2022-10-16T16:47:07.094Z,1.20
2022-10-16T16:49:34.242Z,2.85
2022-10-16T16:52:01.063Z,1.85
2022-10-16T16:54:27.839Z,1.70
2022-10-16T16:56:55.425Z,1.75
2022-10-16T16:59:22.993Z,1.70
2022-10-16T17:01:55.546Z,1.70
2022-10-16T17:04:24.449Z,2.10
2022-10-16T17:06:58.011Z,1.90
2022-10-16T17:09:29.111Z,2.15
2022-10-16T17:11:58.729Z,2.10
2022-10-16T17:14:31.085Z,1.58
2022-10-16T17:16:57.793Z,2.15
2022-10-16T17:19:24.531Z,1.90
2022-10-16T17:21:52.341Z,1.77
2022-10-16T17:24:21.389Z,2.35
2022-10-16T17:26:49.317Z,2.28
2022-10-16T17:29:18.470Z,1.63
2022-10-16T17:31:45.765Z,2.25
2022-10-16T17:34:12.870Z,2.05
2022-10-16T17:36:46.951Z,2.00
2022-10-16T17:39:17.853Z,1.42
2022-10-16T17:41:45.377Z,2.25
2022-10-16T17:44:31.642Z,1.60
2022-10-16T17:46:58.674Z,2.08
2022-10-16T17:49:26.045Z,2.35
2022-10-16T17:51:54.738Z,2.15
2022-10-16T17:54:21.654Z,2.00
2022-10-16T17:56:48.871Z,1.98
2022-10-16T17:59:16.115Z,1.60
2022-10-16T18:01:45.921Z,2.53
2022-10-16T18:04:16.714Z,2.20
2022-10-16T18:06:45.023Z,1.70
2022-10-16T18:09:15.894Z,2.00
2022-10-16T18:11:42.708Z,2.53
2022-10-16T18:14:13.745Z,2.28
2022-10-16T18:16:41.360Z,1.48
2022-10-16T18:19:10.033Z,1.95
2022-10-16T18:21:36.871Z,2.00
2022-10-16T18:24:03.794Z,1.88
2022-10-16T18:26:30.492Z,2.03
2022-10-16T18:28:58.752Z,2.10
2022-10-16T18:31:26.936Z,2.20
2022-10-16T18:33:56.535Z,2.22
2022-10-16T18:36:27.346Z,2.53
2022-10-16T18:38:54.632Z,2.38
2022-10-16T18:41:22.575Z,2.25
2022-10-16T18:43:49.448Z,2.50
2022-10-16T18:46:19.103Z,2.25
2022-10-16T18:48:47.102Z,4.18
2022-10-16T18:51:33.296Z,3.35
2022-10-16T18:54:03.139Z,2.60
2022-10-16T18:56:31.912Z,3.85
2022-10-16T18:59:00.558Z,4.72
2022-10-16T19:01:30.548Z,2.70
2022-10-16T19:04:17.478Z,2.70
2022-10-16T19:06:47.028Z,2.92
2022-10-16T19:09:15.538Z,3.30
2022-10-16T19:11:43.822Z,4.50
2022-10-16T19:14:12.973Z,3.72
2022-10-16T19:16:43.041Z,2.67
2022-10-16T19:19:14.921Z,2.67
2022-10-16T19:21:43.646Z,5.13
2022-10-16T19:24:13.820Z,3.45
2022-10-16T19:26:42.279Z,2.83
2022-10-16T19:29:10.935Z,3.03
2022-10-16T19:31:38.987Z,2.97
2022-10-16T19:34:10.094Z,2.90
2022-10-16T19:36:39.109Z,3.27
2022-10-16T19:39:09.124Z,3.80
2022-10-16T19:41:38.087Z,3.13
2022-10-16T19:44:08.112Z,3.15
2022-10-16T19:46:35.898Z,3.30
2022-10-16T19:49:05.690Z,3.47
2022-10-16T19:51:33.027Z,3.53
2022-10-16T19:54:02.700Z,3.22
2022-10-16T19:56:31.341Z,3.13
2022-10-16T19:58:59.687Z,3.53
2022-10-16T20:01:28.840Z,3.63
2022-10-16T20:03:56.187Z,4.70
2022-10-16T20:06:23.149Z,4.50
2022-10-16T20:08:51.760Z,3.97
2022-10-16T20:11:28.643Z,3.30
2022-10-16T20:13:56.293Z,3.40
2022-10-16T20:16:24.440Z,2.70
2022-10-16T20:18:52.763Z,2.83
2022-10-16T20:21:22.373Z,3.17
2022-10-16T20:23:50.902Z,3.10
2022-10-16T20:26:19.715Z,2.87
2022-10-16T20:28:46.512Z,3.37
2022-10-16T20:31:22.858Z,3.60
2022-10-16T20:33:54.590Z,2.90
2022-10-16T20:36:23.306Z,3.40
2022-10-16T20:38:50.706Z,3.00
2022-10-16T20:41:18.270Z,2.90
2022-10-16T20:43:47.400Z,2.93
2022-10-16T20:46:23.504Z,2.50
2022-10-16T20:48:51.447Z,2.60
2022-10-16T20:51:23.001Z,2.23
2022-10-16T20:53:54.743Z,2.73
2022-10-16T20:56:21.743Z,2.67
2022-10-16T20:58:48.650Z,2.90
2022-10-16T21:01:17.738Z,2.60
2022-10-16T21:03:49.114Z,2.37
2022-10-16T21:06:15.843Z,2.33
2022-10-16T21:08:44.362Z,2.77
2022-10-16T21:11:20.521Z,3.00
2022-10-16T21:13:47.490Z,3.00
2022-10-16T21:16:15.560Z,2.33
2022-10-16T21:18:44.775Z,2.23
2022-10-16T21:21:29.839Z,2.50
2022-10-16T21:23:58.119Z,2.50
2022-10-16T21:26:26.537Z,2.40
2022-10-16T21:28:59.281Z,2.00
2022-10-16T21:31:26.303Z,2.20
2022-10-16T21:33:55.288Z,1.83
2022-10-16T21:36:34.438Z,2.20
2022-10-16T21:39:06.946Z,1.90
2022-10-16T21:41:34.511Z,2.00
2022-10-16T21:44:02.000Z,1.70
2022-10-16T21:46:31.790Z,2.43
2022-10-16T21:49:01.109Z,2.10
2022-10-16T21:51:40.078Z,2.90
2022-10-16T21:54:10.028Z,2.60
2022-10-16T21:56:36.784Z,2.90
2022-10-16T21:59:04.209Z,2.33
2022-10-16T22:01:31.177Z,2.60
2022-10-16T22:03:58.530Z,2.90
2022-10-16T22:06:27.671Z,2.60
2022-10-16T22:08:59.617Z,2.57
2022-10-16T22:11:36.698Z,3.10
2022-10-16T22:14:08.905Z,2.27
2022-10-16T22:16:36.103Z,2.00
2022-10-16T22:19:07.042Z,2.00
2022-10-16T22:21:36.021Z,2.03
2022-10-16T22:24:02.942Z,1.90
2022-10-16T22:26:30.082Z,1.87
2022-10-16T22:28:56.836Z,1.60
2022-10-16T22:31:24.809Z,1.80
2022-10-16T22:33:59.874Z,1.70
2022-10-16T22:36:27.912Z,1.53
2022-10-16T22:38:55.975Z,2.00
2022-10-16T22:41:24.594Z,2.10
2022-10-16T22:43:51.733Z,2.23
2022-10-16T22:46:24.200Z,2.33
2022-10-16T22:48:50.978Z,2.40
2022-10-16T22:51:17.858Z,2.20
2022-10-16T22:53:46.032Z,2.20
2022-10-16T22:56:14.105Z,2.20
2022-10-16T22:58:40.884Z,2.80
2022-10-16T23:01:18.511Z,2.37
2022-10-16T23:03:45.402Z,2.10
2022-10-16T23:06:12.779Z,2.40
2022-10-16T23:08:39.481Z,2.20
2022-10-16T23:11:11.258Z,2.20
2022-10-16T23:13:45.639Z,2.67
2022-10-16T23:16:15.841Z,2.03
2022-10-16T23:18:44.199Z,2.10
2022-10-16T23:21:17.714Z,2.30
2022-10-16T23:23:45.400Z,2.40
2022-10-16T23:26:19.094Z,2.60
2022-10-16T23:28:45.883Z,2.70
2022-10-16T23:31:15.311Z,2.77
2022-10-16T23:33:43.166Z,2.50
2022-10-16T23:36:13.195Z,3.30
2022-10-16T23:38:40.012Z,2.90
2022-10-16T23:41:07.244Z,2.40
2022-10-16T23:43:34.244Z,2.23
2022-10-16T23:46:01.785Z,2.60
2022-10-16T23:48:29.580Z,2.23
2022-10-16T23:50:56.444Z,2.20
2022-10-16T23:53:23.501Z,1.77
2022-10-16T23:55:50.207Z,2.50
2022-10-16T23:58:17.269Z,2.27
